createdAt,value
2023-11-15T00:01:04.049Z,50.7
2023-11-15T00:06:07.914Z,50.8
2023-11-15T00:11:08.376Z,50.6
2023-11-15T00:16:12.237Z,50.7
2023-11-15T00:21:15.432Z,50.7
2023-11-15T00:26:18.762Z,50.7
2023-11-15T00:31:21.930Z,50.6
2023-11-15T00:36:24.939Z,50.6
2023-11-15T00:41:28.068Z,50.7
2023-11-15T00:46:28.497Z,50.7
2023-11-15T00:51:32.167Z,50.7
2023-11-15T00:56:32.744Z,50.7
2023-11-15T01:01:36.468Z,50.6
2023-11-15T01:06:39.570Z,50.8
2023-11-15T01:11:42.808Z,50.6
2023-11-15T01:16:46.062Z,50.6
2023-11-15T01:21:49.185Z,50.6
2023-11-15T01:26:49.652Z,50.6
2023-11-15T01:31:50.642Z,50.7
2023-11-15T01:36:54.369Z,50.6
2023-11-15T01:41:53.787Z,50.7
2023-11-15T01:46:57.887Z,50.5
2023-11-15T01:52:01.003Z,50.6
2023-11-15T01:57:04.229Z,50.6
2023-11-15T02:02:07.455Z,50.5
2023-11-15T02:07:10.590Z,50.3
2023-11-15T02:12:10.932Z,50.3
2023-11-15T02:17:14.669Z,50.3
2023-11-15T02:22:17.977Z,50.2
2023-11-15T02:27:21.410Z,50.3
2023-11-15T02:32:24.663Z,50
2023-11-15T02:37:28.001Z,50.3
2023-11-15T02:42:31.198Z,50.1
2023-11-15T02:47:32.022Z,50.2
2023-11-15T02:52:32.710Z,49.8
2023-11-15T02:57:33.605Z,50.1
2023-11-15T03:02:37.422Z,49.6
2023-11-15T03:07:38.024Z,50.1
2023-11-15T03:12:41.620Z,50
2023-11-15T03:17:45.028Z,50.1
2023-11-15T03:22:45.060Z,50.3
2023-11-15T03:27:49.124Z,50.1
2023-11-15T03:32:52.397Z,50.2
2023-11-15T03:37:52.784Z,50
2023-11-15T03:42:56.394Z,50
2023-11-15T03:47:59.773Z,50.3
2023-11-15T03:53:02.862Z,50.1
2023-11-15T03:58:03.474Z,50.2
2023-11-15T04:03:08.199Z,50.2
2023-11-15T04:08:08.432Z,50.2
2023-11-15T04:13:11.814Z,50
2023-11-15T04:18:15.121Z,50
2023-11-15T04:23:18.365Z,50.1
2023-11-15T04:28:19.016Z,50
2023-11-15T04:33:22.681Z,50.2
2023-11-15T04:38:25.949Z,50.1
2023-11-15T04:43:26.332Z,49.9
2023-11-15T04:48:31.062Z,50.1
2023-11-15T04:53:30.037Z,50.2
2023-11-15T04:58:34.061Z,49.8
2023-11-15T05:03:41.877Z,50
2023-11-15T05:08:44.399Z,50
2023-11-15T05:13:44.794Z,49.7
2023-11-15T05:18:48.679Z,50
2023-11-15T05:23:52.921Z,50.1
2023-11-15T05:28:55.383Z,50.2
2023-11-15T05:33:58.645Z,50.2
2023-11-15T05:39:02.210Z,50.1
2023-11-15T05:44:05.255Z,49.9
2023-11-15T05:49:08.772Z,50.1
2023-11-15T05:54:11.660Z,50.3
2023-11-15T05:59:12.242Z,50.5
2023-11-15T06:04:16.167Z,50.6
2023-11-15T06:09:20.255Z,50.8
2023-11-15T06:14:23.517Z,50.9
2023-11-15T06:19:26.850Z,50.8
2023-11-15T06:24:30.139Z,51.1
2023-11-15T06:29:30.684Z,51
2023-11-15T06:34:34.472Z,51.6
2023-11-15T06:39:34.888Z,51.6
2023-11-15T06:44:35.523Z,51.7
2023-11-15T06:49:36.500Z,51.8
2023-11-15T06:54:40.266Z,52
2023-11-15T06:59:02.202Z,52.1
2023-11-15T07:04:01.587Z,51.9
2023-11-15T07:09:05.298Z,51.9
2023-11-15T07:14:08.583Z,51.8
2023-11-15T07:19:08.872Z,51.6
2023-11-15T07:24:12.565Z,51.6
2023-11-15T07:29:15.840Z,51.5
2023-11-15T07:34:18.976Z,51.8
2023-11-15T07:39:22.999Z,51.8
2023-11-15T07:44:26.161Z,51.6
2023-11-15T07:49:25.407Z,51.8
2023-11-15T07:54:29.308Z,52
2023-11-15T07:59:32.589Z,51.9
2023-11-15T08:04:35.898Z,52
2023-11-15T08:09:36.260Z,52
2023-11-15T08:14:40.010Z,52
2023-11-15T08:19:43.363Z,52.2
2023-11-15T08:24:43.632Z,52.6
2023-11-15T08:29:47.680Z,52.4
2023-11-15T08:34:47.941Z,52.4
2023-11-15T08:39:48.800Z,52.4
2023-11-15T08:44:49.692Z,52.4
2023-11-15T08:49:53.214Z,52.2
2023-11-15T08:54:56.519Z,52.2
2023-11-15T08:59:59.899Z,52.1
2023-11-15T09:05:03.276Z,52.1
2023-11-15T09:10:06.470Z,52
2023-11-15T09:15:09.469Z,52
2023-11-15T09:20:12.759Z,51.8
2023-11-15T09:25:16.019Z,51.8
2023-11-15T09:30:19.278Z,51.8
2023-11-15T09:35:19.647Z,51.7
2023-11-15T09:40:20.772Z,51.8
2023-11-15T09:45:21.663Z,51.7
2023-11-15T09:50:22.653Z,51.8
2023-11-15T09:55:26.513Z,52
2023-11-15T10:00:27.008Z,52.1
2023-11-15T10:05:30.709Z,52
2023-11-15T10:10:31.153Z,52
2023-11-15T10:15:30.959Z,52
2023-11-15T10:20:32.066Z,51.9
2023-11-15T10:25:36.592Z,52
2023-11-15T10:30:37.459Z,52
2023-11-15T10:35:38.229Z,52.1
2023-11-15T10:40:41.827Z,52
2023-11-15T10:45:45.215Z,52.1
2023-11-15T10:50:48.648Z,51.9
2023-11-15T10:55:48.875Z,51.6
2023-11-15T11:00:52.811Z,51.4
2023-11-15T11:05:57.127Z,51.4
2023-11-15T11:10:56.879Z,51.3
2023-11-15T11:15:57.846Z,51.4
2023-11-15T11:20:57.880Z,51.4
2023-11-15T11:26:01.500Z,51.4
2023-11-15T11:31:02.131Z,51.5
2023-11-15T11:36:05.824Z,51.7
2023-11-15T11:41:06.324Z,51.9
2023-11-15T11:46:07.282Z,51.9
2023-11-15T11:51:08.161Z,52.1
2023-11-15T11:56:09.868Z,52.1
2023-11-15T12:01:13.888Z,52.2
2023-11-15T12:06:17.035Z,52.2
2023-11-15T12:11:18.184Z,52.3
2023-11-15T12:16:17.950Z,52.3
2023-11-15T12:21:19.212Z,52.3
2023-11-15T12:26:20.354Z,52.4
2023-11-15T12:31:21.155Z,52.4
2023-11-15T12:36:24.839Z,52.2
2023-11-15T12:41:28.419Z,52.1
2023-11-15T12:46:28.827Z,52.2
2023-11-15T12:51:32.356Z,52
2023-11-15T12:56:32.857Z,51.9
2023-11-15T13:01:36.660Z,51.8
2023-11-15T13:06:37.050Z,52
2023-11-15T13:11:37.913Z,51.7
2023-11-15T13:16:38.672Z,51.4
2023-11-15T13:21:39.512Z,51.4
2023-11-15T13:26:40.610Z,51.4
2023-11-15T13:31:46.000Z,51.5
2023-11-15T13:36:49.147Z,51.5
2023-11-15T13:41:49.457Z,51.5
2023-11-15T13:46:53.177Z,51.6
2023-11-15T13:51:53.716Z,51.5
2023-11-15T13:56:58.364Z,51.5
2023-11-15T14:01:58.730Z,51.8
2023-11-15T14:06:59.315Z,51.7
2023-11-15T14:12:00.811Z,51.7
2023-11-15T14:17:03.638Z,51.7
2023-11-15T14:22:06.601Z,51.8
2023-11-15T14:27:07.018Z,51.8
2023-11-15T14:32:10.880Z,51.9
2023-11-15T14:37:11.494Z,51.9
2023-11-15T14:42:12.344Z,52
2023-11-15T14:47:16.832Z,51.8
2023-11-15T14:52:17.219Z,51.9
2023-11-15T14:57:17.952Z,51.8
2023-11-15T15:02:18.803Z,51.8
2023-11-15T15:07:19.721Z,51.7
2023-11-15T15:12:23.480Z,51.7
2023-11-15T15:17:25.567Z,51.7
2023-11-15T15:22:24.605Z,51.6
2023-11-15T15:27:25.520Z,51.6
2023-11-15T15:32:26.401Z,51.7
2023-11-15T15:37:30.100Z,51.6
2023-11-15T15:42:30.609Z,51.6
2023-11-15T15:47:31.529Z,51.5
2023-11-15T15:52:32.552Z,51.6
2023-11-15T15:57:36.151Z,51.5
2023-11-15T16:02:39.460Z,51.4
2023-11-15T16:07:39.822Z,51.4
2023-11-15T16:12:40.855Z,51.4
2023-11-15T16:17:41.811Z,51.3
2023-11-15T16:22:42.983Z,51.4
2023-11-15T16:27:46.575Z,51.4
2023-11-15T16:32:46.974Z,51.3
2023-11-15T16:37:50.654Z,51.5
2023-11-15T16:42:50.785Z,51.5
2023-11-15T16:47:54.921Z,51.5
2023-11-15T16:52:58.143Z,51.5
2023-11-15T16:57:59.565Z,51.5
2023-11-15T17:02:59.595Z,51.6
2023-11-15T17:08:00.492Z,51.5
2023-11-15T17:13:04.434Z,51.6
2023-11-15T17:18:04.990Z,51.7
2023-11-15T17:23:05.977Z,51.8
2023-11-15T17:28:07.114Z,51.7
2023-11-15T17:33:08.425Z,51.8
2023-11-15T17:38:09.333Z,51.9
2023-11-15T17:43:20.722Z,51.8
2023-11-15T17:48:35.507Z,51.9
2023-11-15T17:53:34.142Z,51.8
2023-11-15T17:58:35.420Z,51.7
2023-11-15T18:03:39.237Z,51.7
2023-11-15T18:08:39.491Z,51.7
2023-11-15T18:13:43.287Z,51.8
2023-11-15T18:18:47.293Z,51.7
2023-11-15T18:23:50.381Z,51.6
2023-11-15T18:28:53.125Z,51.6
2023-11-15T18:33:53.675Z,51.7
2023-11-15T18:38:57.237Z,51.7
2023-11-15T18:44:00.636Z,51.8
2023-11-15T18:49:00.662Z,51.8
2023-11-15T18:54:04.266Z,51.8
2023-11-15T18:59:07.337Z,51.7
2023-11-15T19:04:10.809Z,52
2023-11-15T19:09:26.204Z,52.1
2023-11-15T19:14:27.874Z,52.1
2023-11-15T19:19:27.995Z,52.1
2023-11-15T19:24:31.762Z,52.1
2023-11-15T19:29:35.040Z,52.1
2023-11-15T19:34:36.085Z,52.3
2023-11-15T19:39:39.842Z,52
2023-11-15T19:44:40.276Z,52.1
2023-11-15T19:49:43.771Z,52.3
2023-11-15T19:54:44.178Z,52.2
2023-11-15T19:59:44.840Z,52.3
2023-11-15T20:04:45.668Z,52.4
2023-11-15T20:09:49.409Z,52.2
2023-11-15T20:14:49.820Z,52.3
2023-11-15T20:19:50.833Z,52.3
2023-11-15T20:24:54.521Z,52.3
2023-11-15T20:29:57.680Z,52.5
2023-11-15T20:35:00.848Z,52.1
2023-11-15T20:40:03.989Z,52
2023-11-15T20:45:04.417Z,51.9
2023-11-15T20:50:05.146Z,51.8
2023-11-15T20:55:06.104Z,51.7
2023-11-15T21:00:07.165Z,51.7
2023-11-15T21:05:08.072Z,51.5
2023-11-15T21:10:09.083Z,51.5
2023-11-15T21:15:10.221Z,51.4
2023-11-15T21:20:11.260Z,51.4
2023-11-15T21:25:15.036Z,51.2
2023-11-15T21:30:15.628Z,51
2023-11-15T21:35:16.646Z,51
2023-11-15T21:40:17.303Z,51.1
2023-11-15T21:45:21.632Z,51.1
2023-11-15T21:50:21.615Z,51.1
2023-11-15T21:55:22.471Z,51
2023-11-15T22:00:23.476Z,51
2023-11-15T22:05:27.239Z,51.1
2023-11-15T22:10:30.514Z,51.1
2023-11-15T22:15:33.861Z,51.1
2023-11-15T22:20:36.623Z,51.1
2023-11-15T22:25:37.029Z,51
2023-11-15T22:30:40.880Z,51
2023-11-15T22:35:41.097Z,51.1
2023-11-15T22:40:42.180Z,51.1
2023-11-15T22:45:45.875Z,51
2023-11-15T22:50:46.225Z,51.1
2023-11-15T22:55:49.843Z,51
2023-11-15T23:00:53.256Z,51
2023-11-15T23:05:53.733Z,50.9
2023-11-15T23:10:57.435Z,50.8
2023-11-15T23:15:58.030Z,50.8
2023-11-15T23:20:59.011Z,50.5
2023-11-15T23:25:59.972Z,50.6
2023-11-15T23:31:00.927Z,50.5
2023-11-15T23:36:04.717Z,50.5
2023-11-15T23:41:05.264Z,50.3
2023-11-15T23:46:06.168Z,50.4
2023-11-15T23:51:06.853Z,50.3
2023-11-15T23:56:10.726Z,50.4
